createdAt,value
2022-10-25T00:00:42.538Z,14.21
2022-10-25T00:01:42.692Z,14.22
2022-10-25T00:02:42.579Z,14.20
2022-10-25T00:03:42.477Z,14.28
2022-10-25T00:04:42.450Z,14.29
2022-10-25T00:05:42.431Z,14.33
2022-10-25T00:06:42.404Z,14.20
2022-10-25T00:07:42.395Z,14.25
2022-10-25T00:08:42.358Z,14.24
2022-10-25T00:09:42.334Z,14.20
2022-10-25T00:10:42.334Z,14.17
2022-10-25T00:11:42.295Z,14.21
2022-10-25T00:12:42.280Z,14.17
2022-10-25T00:13:42.255Z,14.20
2022-10-25T00:14:42.222Z,14.22
2022-10-25T00:15:42.213Z,14.14
2022-10-25T00:16:42.177Z,14.17
2022-10-25T00:17:42.154Z,14.15
2022-10-25T00:18:42.133Z,14.14
2022-10-25T00:19:42.127Z,14.18
2022-10-25T00:20:42.085Z,14.18
2022-10-25T00:21:42.068Z,14.18
2022-10-25T00:22:42.037Z,14.17
2022-10-25T00:23:42.021Z,14.22
2022-10-25T00:24:41.995Z,14.24
2022-10-25T00:25:41.972Z,14.22
2022-10-25T00:26:41.970Z,14.24
2022-10-25T00:27:41.924Z,14.09
2022-10-25T00:28:41.904Z,14.24
2022-10-25T00:29:41.882Z,14.21
2022-10-25T00:30:41.856Z,14.18
2022-10-25T00:31:41.837Z,14.21
2022-10-25T00:32:41.817Z,14.21
2022-10-25T00:33:41.786Z,14.10
2022-10-25T00:34:41.772Z,14.14
2022-10-25T00:35:41.745Z,14.18
2022-10-25T00:36:41.725Z,14.21
2022-10-25T00:37:41.753Z,14.24
2022-10-25T00:38:41.696Z,14.20
2022-10-25T00:39:41.663Z,14.22
2022-10-25T00:40:41.628Z,14.24
2022-10-25T00:41:41.609Z,14.18
2022-10-25T00:42:41.610Z,14.18
2022-10-25T00:43:41.564Z,14.25
2022-10-25T00:44:41.542Z,14.21
2022-10-25T00:45:41.520Z,14.20
2022-10-25T00:46:41.493Z,14.20
2022-10-25T00:47:41.468Z,14.36
2022-10-25T00:48:41.447Z,14.32
2022-10-25T00:49:41.424Z,14.24
2022-10-25T00:50:41.407Z,14.24
2022-10-25T00:51:41.378Z,14.27
2022-10-25T00:52:41.359Z,14.33
2022-10-25T00:53:41.337Z,14.29
2022-10-25T00:54:41.312Z,14.24
2022-10-25T00:55:41.290Z,14.27
2022-10-25T00:56:41.265Z,14.29
2022-10-25T00:57:41.250Z,14.36
2022-10-25T00:58:41.241Z,14.29
2022-10-25T00:59:41.197Z,14.39
2022-10-25T01:00:41.182Z,14.33
2022-10-25T01:01:41.248Z,14.32
2022-10-25T01:02:41.267Z,14.35
2022-10-25T01:03:41.108Z,14.36
2022-10-25T01:04:41.087Z,14.35
2022-10-25T01:05:41.060Z,14.39
2022-10-25T01:06:41.042Z,14.45
2022-10-25T01:07:41.018Z,14.39
2022-10-25T01:08:40.993Z,14.47
2022-10-25T01:09:40.972Z,14.40
2022-10-25T01:10:40.945Z,14.42
2022-10-25T01:11:40.926Z,14.40
2022-10-25T01:12:40.906Z,14.40
2022-10-25T01:13:40.879Z,14.43
2022-10-25T01:14:40.873Z,14.57
2022-10-25T01:15:40.833Z,14.51
2022-10-25T01:16:40.807Z,14.57
2022-10-25T01:17:40.787Z,14.50
2022-10-25T01:18:40.764Z,14.50
2022-10-25T01:19:40.745Z,14.55
2022-10-25T01:20:40.717Z,14.55
2022-10-25T01:21:40.703Z,14.57
2022-10-25T01:22:40.677Z,14.55
2022-10-25T01:23:40.657Z,14.54
2022-10-25T01:24:40.631Z,14.62
2022-10-25T01:25:40.617Z,14.61
2022-10-25T01:26:40.581Z,14.65
2022-10-25T01:27:40.562Z,14.61
2022-10-25T01:28:40.537Z,14.50
2022-10-25T01:29:40.519Z,14.73
2022-10-25T01:30:40.514Z,14.58
2022-10-25T01:31:40.470Z,14.47
2022-10-25T01:32:40.445Z,14.52
2022-10-25T01:33:40.426Z,14.73
2022-10-25T01:34:40.400Z,14.64
2022-10-25T01:35:40.380Z,14.72
2022-10-25T01:36:40.355Z,14.70
2022-10-25T01:37:40.336Z,14.68
2022-10-25T01:38:40.318Z,14.58
2022-10-25T01:39:40.288Z,14.62
2022-10-25T01:40:40.267Z,14.72
2022-10-25T01:41:40.245Z,14.64
2022-10-25T01:42:40.223Z,14.72
2022-10-25T01:43:40.197Z,14.61
2022-10-25T01:44:40.180Z,14.68
2022-10-25T01:45:40.157Z,14.57
2022-10-25T01:46:40.153Z,14.60
2022-10-25T01:47:40.109Z,14.69
2022-10-25T01:48:40.081Z,14.69
2022-10-25T01:49:40.065Z,14.78
2022-10-25T01:50:40.040Z,14.68
2022-10-25T01:51:40.024Z,14.77
2022-10-25T01:52:39.991Z,14.77
2022-10-25T01:53:39.973Z,14.73
2022-10-25T01:54:39.948Z,14.70
2022-10-25T01:55:39.929Z,14.75
2022-10-25T01:56:39.904Z,14.73
2022-10-25T01:57:39.884Z,14.77
2022-10-25T01:58:39.856Z,14.75
2022-10-25T01:59:39.835Z,14.77
2022-10-25T02:00:39.864Z,14.73
2022-10-25T02:01:40.080Z,14.77
2022-10-25T02:02:39.789Z,14.75
2022-10-25T02:03:39.748Z,14.78
2022-10-25T02:04:39.728Z,14.72
2022-10-25T02:05:39.699Z,14.78
2022-10-25T02:06:39.679Z,14.77
2022-10-25T02:07:39.657Z,14.75
2022-10-25T02:08:39.630Z,14.78
2022-10-25T02:09:39.612Z,14.72
2022-10-25T02:10:39.588Z,14.75
2022-10-25T02:11:39.571Z,14.75
2022-10-25T02:12:39.540Z,14.77
2022-10-25T02:13:39.516Z,14.73
2022-10-25T02:14:39.504Z,14.75
2022-10-25T02:15:39.474Z,14.78
2022-10-25T02:16:39.451Z,14.75
2022-10-25T02:17:39.429Z,14.75
2022-10-25T02:18:39.427Z,14.75
2022-10-25T02:19:39.388Z,14.78
2022-10-25T02:20:41.827Z,14.73
2022-10-25T02:21:39.338Z,14.77
2022-10-25T02:22:39.316Z,14.73
2022-10-25T02:23:39.298Z,14.78
2022-10-25T02:24:39.270Z,14.72
2022-10-25T02:25:39.248Z,14.73
2022-10-25T02:26:39.297Z,14.73
2022-10-25T02:27:39.202Z,14.72
2022-10-25T02:28:39.180Z,14.75
2022-10-25T02:29:39.157Z,14.75
2022-10-25T02:30:39.138Z,14.73
2022-10-25T02:31:39.119Z,14.72
2022-10-25T02:32:39.088Z,14.88
2022-10-25T02:33:39.068Z,14.77
2022-10-25T02:34:39.066Z,14.80
2022-10-25T02:35:39.019Z,14.91
2022-10-25T02:36:39.001Z,14.81
2022-10-25T02:37:38.975Z,14.75
2022-10-25T02:38:38.949Z,14.80
2022-10-25T02:39:38.930Z,14.78
2022-10-25T02:40:38.915Z,14.80
2022-10-25T02:45:19.038Z,14.81
2022-10-25T02:46:06.281Z,14.83
2022-10-25T02:47:06.255Z,14.83
2022-10-25T02:48:06.233Z,14.77
2022-10-25T02:49:06.208Z,14.92
2022-10-25T02:50:06.205Z,14.86
2022-10-25T02:51:06.167Z,14.88
2022-10-25T02:52:06.150Z,14.81
2022-10-25T02:53:06.122Z,14.88
2022-10-25T02:54:06.100Z,14.88
2022-10-25T02:55:06.078Z,14.78
2022-10-25T02:56:06.050Z,14.83
2022-10-25T02:57:06.029Z,14.88
2022-10-25T02:58:06.008Z,14.81
2022-10-25T02:59:05.984Z,14.84
2022-10-25T03:00:06.072Z,14.88
2022-10-25T03:01:06.060Z,14.84
2022-10-25T03:02:05.917Z,14.88
2022-10-25T03:03:05.891Z,14.83
2022-10-25T03:04:05.869Z,14.88
2022-10-25T03:05:05.848Z,14.88
2022-10-25T03:06:05.858Z,14.78
2022-10-25T03:07:05.806Z,14.83
2022-10-25T03:08:05.778Z,14.83
2022-10-25T03:09:05.755Z,14.88
2022-10-25T03:10:05.735Z,14.86
2022-10-25T03:11:05.716Z,14.86
2022-10-25T03:12:05.687Z,14.78
2022-10-25T03:13:05.665Z,14.83
2022-10-25T03:14:05.648Z,14.84
2022-10-25T03:15:05.623Z,14.89
2022-10-25T03:16:05.604Z,14.83
2022-10-25T03:17:05.577Z,14.83
2022-10-25T03:18:05.556Z,14.80
2022-10-25T03:19:05.529Z,14.86
2022-10-25T03:20:05.510Z,14.86
2022-10-25T03:21:05.486Z,14.83
2022-10-25T03:22:05.485Z,14.81
2022-10-25T03:23:05.440Z,14.81
2022-10-25T03:24:05.421Z,14.88
2022-10-25T03:25:05.449Z,14.80
2022-10-25T03:26:05.373Z,14.77
2022-10-25T03:27:05.350Z,14.83
2022-10-25T03:28:05.329Z,14.78
2022-10-25T03:29:05.307Z,14.83
2022-10-25T03:30:05.279Z,14.84
2022-10-25T03:31:05.260Z,14.86
2022-10-25T03:32:05.240Z,14.83
2022-10-25T03:33:05.215Z,14.75
2022-10-25T03:34:05.189Z,14.80
2022-10-25T03:35:05.173Z,14.88
2022-10-25T03:36:05.146Z,14.84
2022-10-25T03:37:05.127Z,14.92
2022-10-25T03:38:05.121Z,14.84
2022-10-25T03:39:05.083Z,14.94
2022-10-25T03:40:05.054Z,14.89
2022-10-25T03:41:05.035Z,14.86
2022-10-25T03:42:05.009Z,14.92
2022-10-25T03:43:04.990Z,14.88
2022-10-25T03:44:04.972Z,14.92
2022-10-25T03:45:04.945Z,14.92
2022-10-25T03:46:04.923Z,14.89
2022-10-25T03:47:04.895Z,14.89
2022-10-25T03:48:04.876Z,14.84
2022-10-25T03:49:04.853Z,14.92
2022-10-25T03:50:04.826Z,14.89
2022-10-25T03:51:04.807Z,14.86
2022-10-25T03:52:05.096Z,14.89
2022-10-25T03:53:04.834Z,14.83
2022-10-25T03:54:04.764Z,14.88
2022-10-25T03:55:04.720Z,14.89
2022-10-25T03:56:04.693Z,14.89
2022-10-25T03:57:04.676Z,14.78
2022-10-25T03:58:04.648Z,14.81
2022-10-25T03:59:04.630Z,14.83
2022-10-25T04:00:04.620Z,14.86
2022-10-25T04:01:04.726Z,14.78
2022-10-25T04:02:04.676Z,14.77
2022-10-25T04:03:04.544Z,14.73
2022-10-25T04:04:04.510Z,14.75
2022-10-25T04:05:04.502Z,14.83
2022-10-25T04:06:04.468Z,14.84
2022-10-25T04:07:04.449Z,14.81
2022-10-25T04:08:04.423Z,14.80
2022-10-25T04:09:04.405Z,14.77
2022-10-25T04:10:04.402Z,14.78
2022-10-25T04:11:04.359Z,14.77
2022-10-25T04:12:04.335Z,14.78
2022-10-25T04:13:04.314Z,14.77
2022-10-25T04:14:04.288Z,14.77
2022-10-25T04:15:04.266Z,14.77
2022-10-25T04:16:04.243Z,14.73
2022-10-25T04:17:04.219Z,14.77
2022-10-25T04:18:04.198Z,14.81
2022-10-25T04:19:04.180Z,14.73
2022-10-25T04:20:04.151Z,14.83
2022-10-25T04:21:04.131Z,14.75
2022-10-25T04:22:04.106Z,14.81
2022-10-25T04:23:04.085Z,14.75
2022-10-25T04:24:04.579Z,14.83
2022-10-25T04:25:04.044Z,14.73
2022-10-25T04:26:04.042Z,14.83
2022-10-25T04:27:03.999Z,14.77
2022-10-25T04:28:03.969Z,14.75
2022-10-25T04:29:03.952Z,14.77
2022-10-25T04:30:03.932Z,14.72
2022-10-25T04:31:03.914Z,14.73
2022-10-25T04:32:03.884Z,14.75
2022-10-25T04:33:03.858Z,14.73
2022-10-25T04:34:03.836Z,14.73
2022-10-25T04:35:03.814Z,14.80
2022-10-25T04:36:03.806Z,14.72
2022-10-25T04:37:03.779Z,14.69
2022-10-25T04:38:03.751Z,14.77
2022-10-25T04:39:03.734Z,14.72
2022-10-25T04:40:03.715Z,14.75
2022-10-25T04:41:03.689Z,14.73
2022-10-25T04:42:03.769Z,14.73
2022-10-25T04:43:03.651Z,14.73
2022-10-25T04:44:03.616Z,14.75
2022-10-25T04:45:03.590Z,14.70
2022-10-25T04:46:03.569Z,14.78
2022-10-25T04:47:03.544Z,14.70
2022-10-25T04:48:03.524Z,14.69
2022-10-25T04:49:03.499Z,14.72
2022-10-25T04:50:03.477Z,14.72
2022-10-25T04:51:03.454Z,14.68
2022-10-25T04:52:03.427Z,14.70
2022-10-25T04:53:03.407Z,14.68
2022-10-25T04:54:03.381Z,14.70
2022-10-25T04:55:03.359Z,14.69
2022-10-25T04:56:03.336Z,14.69
2022-10-25T04:57:03.318Z,14.73
2022-10-25T04:58:03.313Z,14.70
2022-10-25T04:59:03.272Z,14.75
2022-10-25T05:00:03.251Z,14.65
2022-10-25T05:01:03.317Z,14.64
2022-10-25T05:02:03.205Z,14.73
2022-10-25T05:03:03.238Z,14.68
2022-10-25T05:04:03.163Z,14.77
2022-10-25T05:05:03.137Z,14.64
2022-10-25T05:06:03.116Z,14.72
2022-10-25T05:07:03.093Z,14.57
2022-10-25T05:08:03.069Z,14.60
2022-10-25T05:09:03.044Z,14.68
2022-10-25T05:10:03.028Z,14.69
2022-10-25T05:11:03.007Z,14.73
2022-10-25T05:12:02.977Z,14.64
2022-10-25T05:13:02.958Z,14.68
2022-10-25T05:14:02.959Z,14.70
2022-10-25T05:15:02.924Z,14.58
2022-10-25T05:16:02.886Z,14.64
2022-10-25T05:17:02.864Z,14.68
2022-10-25T05:18:02.844Z,14.77
2022-10-25T05:19:02.823Z,14.62
2022-10-25T05:20:02.800Z,14.65
2022-10-25T05:21:02.774Z,14.58
2022-10-25T05:22:02.753Z,14.70
2022-10-25T05:23:02.743Z,14.68
2022-10-25T05:24:02.817Z,14.61
2022-10-25T05:25:02.688Z,14.62
2022-10-25T05:26:02.660Z,14.73
2022-10-25T05:27:02.642Z,14.64
2022-10-25T05:28:02.616Z,14.58
2022-10-25T05:29:05.527Z,14.57
2022-10-25T05:30:02.710Z,14.62
2022-10-25T05:31:02.595Z,14.60
2022-10-25T05:32:02.535Z,14.65
2022-10-25T05:33:04.168Z,14.61
2022-10-25T05:34:02.488Z,14.61
2022-10-25T05:35:02.456Z,14.54
2022-10-25T05:36:02.440Z,14.60
2022-10-25T05:37:02.412Z,14.58
2022-10-25T05:38:02.389Z,14.54
2022-10-25T05:39:02.369Z,14.55
2022-10-25T05:40:02.345Z,14.50
2022-10-25T05:41:02.325Z,14.55
2022-10-25T05:42:02.439Z,14.52
2022-10-25T05:43:02.279Z,14.51
2022-10-25T05:44:02.256Z,14.51
2022-10-25T05:45:02.232Z,14.46
2022-10-25T05:46:02.230Z,14.50
2022-10-25T05:47:02.186Z,14.45
2022-10-25T05:48:02.160Z,14.45
2022-10-25T05:49:02.141Z,14.40
2022-10-25T05:50:02.119Z,14.43
2022-10-25T05:51:14.367Z,14.45
2022-10-25T05:52:02.073Z,14.42
2022-10-25T05:53:02.051Z,14.40
2022-10-25T05:54:02.026Z,14.42
2022-10-25T05:55:02.008Z,14.43
2022-10-25T05:56:01.982Z,14.42
2022-10-25T05:57:01.962Z,14.42
2022-10-25T05:58:01.942Z,14.39
2022-10-25T05:59:01.915Z,14.43
2022-10-25T06:00:01.896Z,14.42
2022-10-25T06:01:02.021Z,14.35
2022-10-25T06:02:01.961Z,14.43
2022-10-25T06:03:01.819Z,14.39
2022-10-25T06:04:01.799Z,14.35
2022-10-25T06:05:01.784Z,14.25
2022-10-25T06:06:01.760Z,14.35
2022-10-25T06:07:01.735Z,14.25
2022-10-25T06:08:01.707Z,14.28
2022-10-25T06:09:01.692Z,14.35
2022-10-25T06:10:01.664Z,14.36
2022-10-25T06:11:01.642Z,14.28
2022-10-25T06:12:03.013Z,14.32
2022-10-25T06:13:01.596Z,14.28
2022-10-25T06:14:01.574Z,14.22
2022-10-25T06:15:01.553Z,14.22
2022-10-25T06:16:01.528Z,14.18
2022-10-25T06:17:01.502Z,14.27
2022-10-25T06:18:01.505Z,14.27
2022-10-25T06:19:01.465Z,14.33
2022-10-25T06:20:01.436Z,14.28
2022-10-25T06:21:01.429Z,14.24
2022-10-25T06:22:01.388Z,14.24
2022-10-25T06:23:01.381Z,14.27
2022-10-25T06:24:01.347Z,14.28
2022-10-25T06:25:01.331Z,14.25
2022-10-25T06:26:01.300Z,14.33
2022-10-25T06:27:01.286Z,14.22
2022-10-25T06:28:01.256Z,14.20
2022-10-25T06:29:01.239Z,14.21
2022-10-25T06:30:01.208Z,14.21
2022-10-25T06:31:01.190Z,14.27
2022-10-25T06:32:01.166Z,14.27
2022-10-25T06:33:01.140Z,14.24
2022-10-25T06:34:01.150Z,14.22
2022-10-25T06:35:01.095Z,14.22
2022-10-25T06:36:01.072Z,14.27
2022-10-25T06:37:01.047Z,14.20
2022-10-25T06:38:01.027Z,14.21
2022-10-25T06:39:05.577Z,14.20
2022-10-25T06:40:00.978Z,14.18
2022-10-25T06:41:00.958Z,14.21
2022-10-25T06:42:00.933Z,14.21
2022-10-25T06:43:00.924Z,14.33
2022-10-25T06:44:06.188Z,14.25
2022-10-25T06:45:00.868Z,14.20
2022-10-25T06:46:00.848Z,14.18
2022-10-25T06:47:17.770Z,14.25
2022-10-25T06:48:00.802Z,14.32
2022-10-25T06:49:00.780Z,14.20
2022-10-25T06:50:00.783Z,14.25
2022-10-25T06:51:00.734Z,14.22
2022-10-25T06:52:00.711Z,14.27
2022-10-25T06:53:00.697Z,14.24
2022-10-25T06:54:00.678Z,14.21
2022-10-25T06:55:00.641Z,14.21
2022-10-25T06:56:04.531Z,14.27
2022-10-25T06:57:00.600Z,14.25
2022-10-25T06:58:00.571Z,14.28
2022-10-25T06:59:00.548Z,14.24
2022-10-25T07:01:00.525Z,14.39
2022-10-25T07:02:00.681Z,14.35
2022-10-25T07:03:00.464Z,14.33
2022-10-25T07:04:00.433Z,14.36
2022-10-25T07:05:00.418Z,14.42
2022-10-25T07:06:00.411Z,14.42
2022-10-25T07:07:00.369Z,14.42
2022-10-25T07:08:00.348Z,14.45
2022-10-25T07:09:00.322Z,14.39
2022-10-25T07:10:00.303Z,14.43
2022-10-25T07:11:00.274Z,14.46
2022-10-25T07:12:00.255Z,14.45
2022-10-25T07:13:00.232Z,14.39
2022-10-25T07:14:00.211Z,14.52
2022-10-25T07:15:00.187Z,14.45
2022-10-25T07:16:00.174Z,14.43
2022-10-25T07:17:00.142Z,14.36
2022-10-25T07:18:00.122Z,14.43
2022-10-25T07:19:00.102Z,14.45
2022-10-25T07:20:00.078Z,14.40
2022-10-25T07:21:00.056Z,14.45
2022-10-25T07:22:00.055Z,14.47
2022-10-25T07:23:00.686Z,14.54
2022-10-25T07:23:59.981Z,14.54
2022-10-25T07:25:00.022Z,14.55
2022-10-25T07:25:59.942Z,14.58
2022-10-25T07:26:59.914Z,14.52
2022-10-25T07:27:59.892Z,14.57
2022-10-25T07:28:59.870Z,14.65
2022-10-25T07:29:59.854Z,14.69
2022-10-25T07:30:59.830Z,14.50
2022-10-25T07:31:59.802Z,14.62
2022-10-25T07:32:59.785Z,14.60
2022-10-25T07:33:59.763Z,14.68
2022-10-25T07:34:59.747Z,14.60
2022-10-25T07:36:10.204Z,14.64
2022-10-25T07:36:59.686Z,14.80
2022-10-25T07:37:59.687Z,14.61
2022-10-25T07:38:59.642Z,14.70
2022-10-25T07:39:59.623Z,14.65
2022-10-25T07:40:59.604Z,14.78
2022-10-25T07:41:59.590Z,14.77
2022-10-25T07:42:59.560Z,14.75
2022-10-25T07:43:59.532Z,14.75
2022-10-25T07:44:59.508Z,14.73
2022-10-25T07:45:59.489Z,14.70
2022-10-25T07:46:59.463Z,14.77
2022-10-25T07:47:59.446Z,14.72
2022-10-25T07:48:59.418Z,14.77
2022-10-25T07:49:59.393Z,14.83
2022-10-25T07:50:59.376Z,14.84
2022-10-25T07:51:59.354Z,14.81
2022-10-25T07:52:59.326Z,14.73
2022-10-25T07:53:59.327Z,14.80
2022-10-25T07:54:59.281Z,14.75
2022-10-25T07:55:59.263Z,14.78
2022-10-25T07:56:59.239Z,14.83
2022-10-25T07:57:59.220Z,14.86
2022-10-25T07:58:59.194Z,14.81
2022-10-25T07:59:59.170Z,14.80
2022-10-25T08:00:59.154Z,14.88
2022-10-25T08:01:59.125Z,14.89
2022-10-25T08:02:59.163Z,14.88
2022-10-25T08:03:59.080Z,14.83
2022-10-25T08:04:59.055Z,14.89
2022-10-25T08:05:59.041Z,14.88
2022-10-25T08:06:59.009Z,14.94
2022-10-25T08:07:58.994Z,14.86
2022-10-25T08:09:05.361Z,14.92
2022-10-25T08:09:58.976Z,14.94
2022-10-25T08:10:58.925Z,14.86
2022-10-25T08:11:58.903Z,14.88
2022-10-25T08:12:58.874Z,14.91
2022-10-25T08:13:58.860Z,14.91
2022-10-25T08:14:58.832Z,14.91
2022-10-25T08:15:58.812Z,14.95
2022-10-25T08:16:58.796Z,14.94
2022-10-25T08:17:58.766Z,14.98
2022-10-25T08:18:58.740Z,14.94
2022-10-25T08:19:58.720Z,15.01
2022-10-25T08:21:03.313Z,15.03
2022-10-25T08:21:58.677Z,14.98
2022-10-25T08:22:58.657Z,14.88
2022-10-25T08:23:58.632Z,15.01
2022-10-25T08:24:58.608Z,15.02
2022-10-25T08:25:58.615Z,14.92
2022-10-25T08:26:58.562Z,14.96
2022-10-25T08:27:58.541Z,14.91
2022-10-25T08:28:58.520Z,15.01
2022-10-25T08:29:58.492Z,15.06
2022-10-25T08:30:58.525Z,15.07
2022-10-25T08:31:58.450Z,14.91
2022-10-25T08:32:58.879Z,15.07
2022-10-25T08:33:58.477Z,15.03
2022-10-25T08:34:58.384Z,14.99
2022-10-25T08:35:58.365Z,15.02
2022-10-25T08:36:58.337Z,14.96
2022-10-25T08:37:58.314Z,15.09
2022-10-25T08:38:58.288Z,15.11
2022-10-25T08:39:58.266Z,15.19
2022-10-25T08:40:58.252Z,15.03
2022-10-25T08:41:58.244Z,15.11
2022-10-25T08:42:58.202Z,15.16
2022-10-25T08:43:58.179Z,15.16
2022-10-25T08:44:58.174Z,15.14
2022-10-25T08:45:58.140Z,15.19
2022-10-25T08:46:58.114Z,15.16
2022-10-25T08:47:58.094Z,15.14
2022-10-25T08:48:58.070Z,15.17
2022-10-25T08:49:58.047Z,15.10
2022-10-25T08:50:58.022Z,15.11
2022-10-25T08:51:57.998Z,15.21
2022-10-25T08:52:58.004Z,15.21
2022-10-25T08:53:57.958Z,15.21
2022-10-25T08:55:00.360Z,15.28
2022-10-25T08:56:15.547Z,15.31
2022-10-25T08:57:14.616Z,15.32
2022-10-25T08:57:57.973Z,15.27
2022-10-25T08:58:57.843Z,15.25
2022-10-25T08:59:57.819Z,15.29
2022-10-25T09:00:57.847Z,15.28
2022-10-25T09:01:57.967Z,15.32
2022-10-25T09:02:57.756Z,15.39
2022-10-25T09:03:57.733Z,15.38
2022-10-25T09:04:57.713Z,15.29
2022-10-25T09:05:57.691Z,15.27
2022-10-25T09:06:57.664Z,15.29
2022-10-25T09:07:57.641Z,15.32
2022-10-25T09:08:57.621Z,15.32
2022-10-25T09:09:57.599Z,15.27
2022-10-25T09:10:57.574Z,15.31
2022-10-25T09:11:57.553Z,15.25
2022-10-25T09:12:57.533Z,15.25
2022-10-25T09:13:57.535Z,15.36
2022-10-25T09:14:57.486Z,15.36
2022-10-25T09:15:57.461Z,15.34
2022-10-25T09:16:57.442Z,15.29
2022-10-25T09:17:57.419Z,15.32
2022-10-25T09:18:57.414Z,15.32
2022-10-25T09:19:57.373Z,15.36
2022-10-25T09:20:57.352Z,15.39
2022-10-25T09:21:57.332Z,15.29
2022-10-25T09:22:57.308Z,15.32
2022-10-25T09:23:57.285Z,15.35
2022-10-25T09:24:57.940Z,15.39
2022-10-25T09:25:57.238Z,15.39
2022-10-25T09:26:57.217Z,15.35
2022-10-25T09:27:57.196Z,15.39
2022-10-25T09:28:57.170Z,15.36
2022-10-25T09:29:57.196Z,15.35
2022-10-25T09:30:57.130Z,15.36
2022-10-25T09:31:57.102Z,15.35
2022-10-25T09:32:57.084Z,15.41
2022-10-25T09:33:58.851Z,15.38
2022-10-25T09:34:57.041Z,15.47
2022-10-25T09:35:57.020Z,15.41
2022-10-25T09:36:56.991Z,15.39
2022-10-25T09:37:56.970Z,15.51
2022-10-25T09:38:56.950Z,15.51
2022-10-25T09:39:56.927Z,15.47
2022-10-25T09:40:56.902Z,15.50
2022-10-25T09:41:56.886Z,15.54
2022-10-25T09:42:56.930Z,15.56
2022-10-25T09:43:56.839Z,15.44
2022-10-25T09:44:56.817Z,15.46
2022-10-25T09:45:56.826Z,15.54
2022-10-25T09:46:56.772Z,15.54
2022-10-25T09:47:56.776Z,15.47
2022-10-25T09:48:56.734Z,15.53
2022-10-25T09:49:56.709Z,15.49
2022-10-25T09:50:56.691Z,15.49
2022-10-25T09:51:56.660Z,15.50
2022-10-25T09:52:56.735Z,15.43
2022-10-25T09:53:56.613Z,15.43
2022-10-25T09:54:56.595Z,15.44
2022-10-25T09:55:56.568Z,15.44
2022-10-25T09:56:56.552Z,15.54
2022-10-25T09:57:56.532Z,15.49
2022-10-25T09:58:56.507Z,15.47
2022-10-25T09:59:56.484Z,15.51
2022-10-25T10:00:56.459Z,15.49
2022-10-25T10:01:56.549Z,15.44
2022-10-25T10:02:56.773Z,15.49
2022-10-25T10:03:58.038Z,15.47
2022-10-25T10:04:56.368Z,15.49
2022-10-25T10:05:56.350Z,15.49
2022-10-25T10:06:56.326Z,15.64
2022-10-25T10:07:56.307Z,15.51
2022-10-25T10:08:56.279Z,15.49
2022-10-25T10:09:56.259Z,15.46
2022-10-25T10:10:56.242Z,15.43
2022-10-25T10:11:56.217Z,15.47
2022-10-25T10:12:56.231Z,15.50
2022-10-25T10:13:56.172Z,15.53
2022-10-25T10:14:56.147Z,15.54
2022-10-25T10:15:56.123Z,15.47
2022-10-25T10:16:56.102Z,15.53
2022-10-25T10:17:56.204Z,15.49
2022-10-25T10:18:56.059Z,15.49
2022-10-25T10:19:56.039Z,15.53
2022-10-25T10:20:56.013Z,15.53
2022-10-25T10:21:55.999Z,15.59
2022-10-25T10:22:55.970Z,15.54
2022-10-25T10:23:55.953Z,15.64
2022-10-25T10:24:55.929Z,15.67
2022-10-25T10:25:55.913Z,15.68
2022-10-25T10:26:55.884Z,15.69
2022-10-25T10:27:55.856Z,15.68
2022-10-25T10:28:55.835Z,15.72
2022-10-25T10:29:55.821Z,15.68
2022-10-25T10:30:55.794Z,15.68
2022-10-25T10:31:55.769Z,15.67
2022-10-25T10:32:57.315Z,15.71
2022-10-25T10:33:55.750Z,15.75
2022-10-25T10:34:55.705Z,15.74
2022-10-25T10:35:55.682Z,15.82
2022-10-25T10:36:55.661Z,15.71
2022-10-25T10:37:55.642Z,15.69
2022-10-25T10:38:55.620Z,15.68
2022-10-25T10:39:55.591Z,15.80
2022-10-25T10:40:55.570Z,15.78
2022-10-25T10:41:55.552Z,15.84
2022-10-25T10:42:58.342Z,15.80
2022-10-25T10:43:55.505Z,15.80
2022-10-25T10:44:55.483Z,15.82
2022-10-25T10:45:55.462Z,15.72
2022-10-25T10:46:55.439Z,15.69
2022-10-25T10:47:55.412Z,15.65
2022-10-25T10:48:55.391Z,15.71
2022-10-25T10:49:55.393Z,15.69
2022-10-25T10:50:55.357Z,15.68
2022-10-25T10:51:55.332Z,15.68
2022-10-25T10:52:58.469Z,15.67
2022-10-25T10:53:55.282Z,15.72
2022-10-25T10:54:55.262Z,15.64
2022-10-25T10:55:55.244Z,15.72
2022-10-25T10:56:55.217Z,15.71
2022-10-25T10:57:55.195Z,15.74
2022-10-25T10:58:55.176Z,15.72
2022-10-25T10:59:55.151Z,15.76
2022-10-25T11:00:55.127Z,15.86
2022-10-25T11:01:55.251Z,15.90
2022-10-25T11:04:00.441Z,16.02
2022-10-25T11:04:55.041Z,16.07
2022-10-25T11:05:55.109Z,16.07
2022-10-25T11:06:55.000Z,16.09
2022-10-25T11:07:54.974Z,16.02
2022-10-25T11:08:54.951Z,16.09
2022-10-25T11:09:54.937Z,16.11
2022-10-25T11:10:54.910Z,16.12
2022-10-25T11:11:54.898Z,16.11
2022-10-25T11:13:54.845Z,16.23
2022-10-25T11:14:54.818Z,16.02
2022-10-25T11:15:54.796Z,16.08
2022-10-25T11:16:54.779Z,16.09
2022-10-25T11:17:54.753Z,16.04
2022-10-25T11:18:54.737Z,16.08
2022-10-25T11:19:54.714Z,16.07
2022-10-25T11:20:54.693Z,16.07
2022-10-25T11:21:54.785Z,16.09
2022-10-25T11:22:54.650Z,16.17
2022-10-25T11:23:54.627Z,16.15
2022-10-25T11:24:54.599Z,16.34
2022-10-25T11:25:54.578Z,16.23
2022-10-25T11:26:54.562Z,16.25
2022-10-25T11:27:54.535Z,16.27
2022-10-25T11:28:54.514Z,16.25
2022-10-25T11:29:54.492Z,16.23
2022-10-25T11:30:54.472Z,16.15
2022-10-25T11:31:54.449Z,16.15
2022-10-25T11:32:54.429Z,16.23
2022-10-25T11:33:54.405Z,16.14
2022-10-25T11:34:54.383Z,16.31
2022-10-25T11:35:54.361Z,16.30
2022-10-25T11:36:54.339Z,16.30
2022-10-25T11:37:54.430Z,16.35
2022-10-25T11:38:54.297Z,16.43
2022-10-25T11:39:54.278Z,16.38
2022-10-25T11:40:54.254Z,16.31
2022-10-25T11:41:54.230Z,16.33
2022-10-25T11:42:54.210Z,16.28
2022-10-25T11:43:54.184Z,16.38
2022-10-25T11:44:54.159Z,16.24
2022-10-25T11:45:54.139Z,16.23
2022-10-25T11:46:54.120Z,16.25
2022-10-25T11:47:54.104Z,16.21
2022-10-25T11:48:54.075Z,16.23
2022-10-25T11:49:56.967Z,16.24
2022-10-25T11:50:54.033Z,16.24
2022-10-25T11:51:54.006Z,16.25
2022-10-25T11:52:56.090Z,16.28
2022-10-25T11:53:54.086Z,16.25
2022-10-25T11:54:53.941Z,16.34
2022-10-25T11:55:53.917Z,16.31
2022-10-25T11:56:53.901Z,16.41
2022-10-25T11:57:53.878Z,16.42
2022-10-25T11:58:53.859Z,16.42
2022-10-25T11:59:53.837Z,16.42
2022-10-25T12:00:53.815Z,16.53
2022-10-25T12:01:53.794Z,16.48
2022-10-25T12:02:53.809Z,16.49
2022-10-25T12:03:53.746Z,16.53
2022-10-25T12:04:53.732Z,16.57
2022-10-25T12:05:53.704Z,16.63
2022-10-25T12:06:53.681Z,16.64
2022-10-25T12:07:53.661Z,16.76
2022-10-25T12:08:53.641Z,16.79
2022-10-25T12:09:53.759Z,16.83
2022-10-25T12:10:53.597Z,16.85
2022-10-25T12:11:53.570Z,16.89
2022-10-25T12:12:53.554Z,16.96
2022-10-25T12:13:53.528Z,16.98
2022-10-25T12:14:53.511Z,17.01
2022-10-25T12:15:53.484Z,16.96
2022-10-25T12:16:53.462Z,16.83
2022-10-25T12:17:53.444Z,16.89
2022-10-25T12:18:53.418Z,16.79
2022-10-25T12:19:53.401Z,16.82
2022-10-25T12:20:53.381Z,16.76
2022-10-25T12:21:55.710Z,16.64
2022-10-25T12:22:53.336Z,16.71
2022-10-25T12:23:53.309Z,16.70
2022-10-25T12:24:53.293Z,16.66
2022-10-25T12:25:53.383Z,16.71
2022-10-25T12:26:53.248Z,16.68
2022-10-25T12:27:56.459Z,16.70
2022-10-25T12:28:53.208Z,16.70
2022-10-25T12:29:53.180Z,16.68
2022-10-25T12:30:53.161Z,16.70
2022-10-25T12:31:53.139Z,16.64
2022-10-25T12:32:53.117Z,16.66
2022-10-25T12:33:53.097Z,16.57
2022-10-25T12:34:53.075Z,16.60
2022-10-25T12:35:53.051Z,16.66
2022-10-25T12:36:53.030Z,16.63
2022-10-25T12:37:56.480Z,16.67
2022-10-25T12:38:52.989Z,16.66
2022-10-25T12:39:52.964Z,16.78
2022-10-25T12:40:52.943Z,16.75
2022-10-25T12:41:53.029Z,16.73
2022-10-25T12:42:52.898Z,16.75
2022-10-25T12:43:52.880Z,16.83
2022-10-25T12:44:52.858Z,16.83
2022-10-25T12:45:57.427Z,16.81
2022-10-25T12:46:52.813Z,16.83
2022-10-25T12:47:52.789Z,16.93
2022-10-25T12:48:52.770Z,16.93
2022-10-25T12:49:52.751Z,16.91
2022-10-25T12:50:52.730Z,16.93
2022-10-25T12:51:52.701Z,16.89
2022-10-25T12:52:52.687Z,16.94
2022-10-25T12:53:52.665Z,17.00
2022-10-25T12:54:52.638Z,16.98
2022-10-25T12:55:52.618Z,16.96
2022-10-25T12:56:52.593Z,17.00
2022-10-25T12:57:52.693Z,16.96
2022-10-25T12:58:52.553Z,16.86